createdAt,value
2018-03-01T00:00:45.241Z,50.55
2018-03-01T00:01:45.200Z,50.55
2018-03-01T00:02:45.184Z,50.93
2018-03-01T00:03:45.170Z,50.46
2018-03-01T00:04:45.147Z,50.93
2018-03-01T00:05:45.129Z,50.84
2018-03-01T00:06:45.119Z,50.84
2018-03-01T00:07:45.090Z,50.65
2018-03-01T00:08:45.109Z,50.65
2018-03-01T00:09:45.057Z,50.55
2018-03-01T00:10:45.036Z,50.84
2018-03-01T00:11:45.030Z,50.93
2018-03-01T00:12:45.012Z,50.55
2018-03-01T00:13:45.007Z,50.65
2018-03-01T00:14:44.970Z,50.74
2018-03-01T00:15:44.954Z,50.55
2018-03-01T00:16:44.933Z,50.84
2018-03-01T00:17:44.911Z,51.03
2018-03-01T00:18:44.898Z,50.93
2018-03-01T00:19:44.877Z,50.74
2018-03-01T00:20:44.872Z,51.12
2018-03-01T00:21:44.861Z,51.12
2018-03-01T00:22:44.825Z,51.03
2018-03-01T00:23:44.805Z,51.12
2018-03-01T00:24:44.789Z,50.93
2018-03-01T00:25:44.769Z,50.74
2018-03-01T00:26:44.757Z,50.74
2018-03-01T00:27:44.729Z,51.31
2018-03-01T00:28:44.713Z,51.31
2018-03-01T00:29:44.696Z,51.50
2018-03-01T00:30:53.340Z,51.31
2018-03-01T00:32:38.062Z,51.40
2018-03-01T00:33:38.023Z,51.12
2018-03-01T00:34:38.008Z,51.03
2018-03-01T00:35:37.986Z,51.12
2018-03-01T00:36:37.971Z,51.12
2018-03-01T00:37:37.956Z,51.40
2018-03-01T00:38:37.946Z,51.31
2018-03-01T00:39:37.916Z,51.59
2018-03-01T00:40:37.899Z,51.78
2018-03-01T00:41:37.887Z,51.87
2018-03-01T00:42:37.859Z,51.68
2018-03-01T00:43:37.844Z,52.06
2018-03-01T00:44:37.830Z,51.59
2018-03-01T00:45:37.822Z,51.97
2018-03-01T00:46:37.791Z,51.87
2018-03-01T00:47:37.770Z,51.87
2018-03-01T00:48:37.766Z,51.78
2018-03-01T00:49:37.746Z,51.97
2018-03-01T00:50:37.716Z,51.87
2018-03-01T00:51:37.704Z,51.87
2018-03-01T00:52:37.676Z,51.87
2018-03-01T00:53:37.693Z,51.97
2018-03-01T00:54:37.641Z,52.25
2018-03-01T00:55:37.624Z,52.25
2018-03-01T00:56:37.613Z,51.97
2018-03-01T00:57:37.594Z,52.06
2018-03-01T00:58:37.566Z,52.15
2018-03-01T00:59:37.560Z,52.34
2018-03-01T01:00:37.553Z,52.06
2018-03-01T01:01:37.537Z,51.97
2018-03-01T01:02:37.499Z,52.25
2018-03-01T01:03:37.510Z,52.44
2018-03-01T01:04:37.456Z,52.06
2018-03-01T01:05:37.450Z,53.00
2018-03-01T01:06:37.426Z,52.91
2018-03-01T01:07:37.418Z,52.91
2018-03-01T01:08:37.403Z,53.10
2018-03-01T01:09:37.368Z,53.00
2018-03-01T01:10:37.352Z,52.91
2018-03-01T01:11:37.347Z,52.62
2018-03-01T01:12:37.313Z,52.81
2018-03-01T01:13:37.295Z,53.10
2018-03-01T01:14:37.276Z,53.00
2018-03-01T01:15:37.257Z,52.53
2018-03-01T01:16:37.246Z,52.72
2018-03-01T01:17:37.226Z,52.91
2018-03-01T01:18:37.206Z,53.00
2018-03-01T01:19:37.204Z,52.81
2018-03-01T01:20:37.210Z,52.81
2018-03-01T01:21:37.148Z,52.81
2018-03-01T01:22:37.131Z,52.81
2018-03-01T01:23:37.116Z,53.47
2018-03-01T01:24:37.098Z,53.76
2018-03-01T01:25:37.107Z,53.07
2018-03-01T01:26:37.082Z,53.83
2018-03-01T01:27:37.051Z,53.73
2018-03-01T01:28:37.029Z,53.36
2018-03-01T01:29:37.011Z,53.73
2018-03-01T01:30:36.985Z,53.83
2018-03-01T01:31:36.973Z,53.83
2018-03-01T01:32:36.952Z,53.83
2018-03-01T01:33:36.937Z,54.02
2018-03-01T01:34:36.911Z,53.83
2018-03-01T01:35:36.894Z,53.92
2018-03-01T01:36:36.896Z,53.92
2018-03-01T01:37:36.863Z,53.83
2018-03-01T01:38:36.848Z,54.30
2018-03-01T01:39:36.820Z,54.21
2018-03-01T01:40:36.805Z,54.02
2018-03-01T01:41:36.789Z,54.21
2018-03-01T01:42:36.766Z,54.30
2018-03-01T01:43:45.474Z,54.39
2018-03-01T01:45:30.434Z,54.68
2018-03-01T01:46:30.365Z,54.86
2018-03-01T01:47:30.345Z,55.05
2018-03-01T01:48:30.332Z,55.05
2018-03-01T01:49:30.325Z,55.05
2018-03-01T01:50:30.288Z,55.05
2018-03-01T01:51:30.270Z,54.96
2018-03-01T01:52:30.255Z,55.05
2018-03-01T01:53:30.237Z,55.15
2018-03-01T01:54:30.213Z,54.86
2018-03-01T01:55:30.201Z,55.05
2018-03-01T01:56:30.185Z,55.05
2018-03-01T01:57:30.158Z,55.15
2018-03-01T01:58:30.138Z,54.86
2018-03-01T01:59:30.125Z,55.24
2018-03-01T02:00:30.105Z,54.96
2018-03-01T02:01:30.087Z,55.05
2018-03-01T02:02:30.071Z,55.05
2018-03-01T02:03:30.065Z,55.24
2018-03-01T02:04:30.047Z,55.05
2018-03-01T02:05:30.012Z,55.05
2018-03-01T02:06:29.996Z,55.05
2018-03-01T02:07:29.973Z,55.05
2018-03-01T02:08:29.968Z,55.43
2018-03-01T02:09:29.936Z,55.71
2018-03-01T02:10:29.924Z,55.15
2018-03-01T02:11:29.900Z,55.43
2018-03-01T02:12:29.887Z,55.52
2018-03-01T02:13:29.867Z,55.90
2018-03-01T02:14:29.840Z,55.71
2018-03-01T02:15:29.823Z,55.43
2018-03-01T02:17:50.875Z,55.80
2018-03-01T02:18:50.832Z,55.80
2018-03-01T02:19:50.840Z,55.62
2018-03-01T02:20:50.833Z,55.33
2018-03-01T02:21:50.776Z,55.90
2018-03-01T02:22:50.772Z,55.15
2018-03-01T02:23:50.741Z,55.05
2018-03-01T02:24:50.753Z,55.05
2018-03-01T02:25:50.701Z,55.05
2018-03-01T02:26:50.683Z,55.05
2018-03-01T02:27:50.673Z,55.05
2018-03-01T02:28:50.683Z,55.43
2018-03-01T02:29:50.628Z,55.24
2018-03-01T02:30:50.618Z,55.05
2018-03-01T02:31:50.606Z,54.96
2018-03-01T02:32:50.572Z,55.15
2018-03-01T02:33:50.555Z,54.86
2018-03-01T02:34:50.544Z,55.24
2018-03-01T02:35:50.535Z,54.96
2018-03-01T02:36:50.495Z,55.15
2018-03-01T02:37:50.477Z,55.15
2018-03-01T02:38:50.476Z,55.24
2018-03-01T02:39:50.469Z,54.77
2018-03-01T02:40:50.424Z,55.15
2018-03-01T02:41:50.402Z,55.05
2018-03-01T02:42:50.400Z,55.05
2018-03-01T02:43:50.367Z,55.15
2018-03-01T02:44:50.370Z,54.77
2018-03-01T02:45:50.328Z,54.96
2018-03-01T02:46:50.314Z,54.86
2018-03-01T02:47:50.304Z,54.77
2018-03-01T02:48:50.289Z,54.96
2018-03-01T02:49:50.249Z,54.96
2018-03-01T02:50:50.234Z,54.68
2018-03-01T02:51:50.219Z,54.77
2018-03-01T02:52:50.197Z,54.49
2018-03-01T02:53:50.176Z,54.96
2018-03-01T02:54:50.171Z,54.68
2018-03-01T02:55:58.786Z,54.86
2018-03-01T02:57:43.507Z,54.49
2018-03-01T02:58:43.484Z,54.30
2018-03-01T02:59:43.458Z,54.49
2018-03-01T03:00:43.441Z,54.39
2018-03-01T03:01:43.433Z,54.58
2018-03-01T03:02:43.431Z,54.49
2018-03-01T03:03:43.395Z,54.68
2018-03-01T03:04:43.371Z,54.68
2018-03-01T03:05:43.351Z,54.49
2018-03-01T03:06:43.336Z,54.49
2018-03-01T03:07:43.308Z,54.30
2018-03-01T03:08:43.310Z,54.30
2018-03-01T03:09:43.271Z,54.68
2018-03-01T03:10:43.253Z,55.05
2018-03-01T03:27:12.362Z,54.68
2018-03-01T03:28:12.305Z,54.86
2018-03-01T03:29:12.286Z,55.24
2018-03-01T03:30:12.272Z,54.68
2018-03-01T03:31:12.260Z,54.39
2018-03-01T03:32:12.214Z,54.96
2018-03-01T03:33:12.202Z,54.68
2018-03-01T03:34:12.172Z,54.39
2018-03-01T03:35:12.155Z,55.24
2018-03-01T03:36:12.133Z,54.77
2018-03-01T03:37:12.115Z,54.86
2018-03-01T03:38:12.103Z,54.96
2018-03-01T03:39:12.082Z,54.77
2018-03-01T03:40:12.055Z,55.15
2018-03-01T03:41:12.048Z,54.77
2018-03-01T03:42:12.020Z,54.86
2018-03-01T03:43:12.003Z,54.30
2018-03-01T03:44:11.984Z,54.49
2018-03-01T03:45:11.963Z,54.30
2018-03-01T03:46:11.942Z,54.77
2018-03-01T03:47:11.924Z,54.86
2018-03-01T03:48:11.901Z,54.39
2018-03-01T03:49:11.904Z,54.49
2018-03-01T03:50:11.863Z,54.39
2018-03-01T03:51:11.856Z,54.77
2018-03-01T03:52:11.830Z,54.68
2018-03-01T03:53:11.809Z,54.39
2018-03-01T03:54:11.792Z,54.49
2018-03-01T03:55:11.776Z,54.68
2018-03-01T03:56:11.769Z,54.58
2018-03-01T03:57:11.794Z,54.58
2018-03-01T03:58:11.715Z,54.68
2018-03-01T03:59:11.786Z,54.58
2018-03-01T04:00:11.684Z,54.68
2018-03-01T04:01:11.657Z,54.30
2018-03-01T04:02:11.646Z,54.68
2018-03-01T04:03:11.622Z,54.68
2018-03-01T04:04:11.608Z,54.39
2018-03-01T04:05:11.639Z,54.49
2018-03-01T04:06:11.561Z,54.58
2018-03-01T04:07:11.557Z,54.68
2018-03-01T04:08:11.528Z,54.49
2018-03-01T04:10:33.737Z,54.58
2018-03-01T04:11:33.699Z,54.68
2018-03-01T04:12:33.692Z,54.68
2018-03-01T04:13:33.667Z,54.21
2018-03-01T04:14:33.669Z,54.68
2018-03-01T04:15:33.648Z,54.21
2018-03-01T04:16:33.628Z,54.58
2018-03-01T04:17:33.585Z,54.30
2018-03-01T04:18:33.572Z,54.68
2018-03-01T04:19:33.559Z,54.58
2018-03-01T04:20:33.534Z,54.39
2018-03-01T04:21:33.510Z,54.77
2018-03-01T04:22:33.491Z,54.68
2018-03-01T04:23:33.473Z,54.49
2018-03-01T04:24:33.455Z,54.77
2018-03-01T04:25:33.457Z,54.68
2018-03-01T04:26:33.414Z,54.30
2018-03-01T04:27:33.404Z,54.77
2018-03-01T04:28:33.380Z,54.49
2018-03-01T04:29:33.361Z,54.68
2018-03-01T04:30:33.348Z,54.49
2018-03-01T04:31:33.320Z,54.30
2018-03-01T04:32:33.365Z,54.68
2018-03-01T04:33:33.289Z,54.49
2018-03-01T04:34:33.270Z,54.39
2018-03-01T04:35:33.248Z,54.49
2018-03-01T04:36:33.239Z,54.21
2018-03-01T04:37:33.234Z,54.21
2018-03-01T04:38:33.192Z,54.68
2018-03-01T04:39:33.172Z,54.49
2018-03-01T04:40:33.157Z,54.68
2018-03-01T04:41:33.137Z,54.39
2018-03-01T04:42:33.118Z,54.39
2018-03-01T04:43:33.095Z,54.30
2018-03-01T04:44:33.084Z,54.30
2018-03-01T04:45:33.058Z,54.58
2018-03-01T04:46:33.045Z,54.30
2018-03-01T04:47:33.029Z,54.39
2018-03-01T04:48:33.003Z,54.68
2018-03-01T04:49:32.987Z,54.49
2018-03-01T04:50:32.972Z,54.30
2018-03-01T04:51:32.955Z,54.58
2018-03-01T04:52:32.933Z,54.68
2018-03-01T04:53:32.917Z,54.30
2018-03-01T04:54:32.899Z,54.86
2018-03-01T04:55:32.876Z,54.68
2018-03-01T04:56:32.858Z,54.86
2018-03-01T04:57:32.839Z,54.68
2018-03-01T04:58:32.818Z,54.96
2018-03-01T04:59:32.798Z,55.05
2018-03-01T05:00:32.782Z,55.15
2018-03-01T05:01:32.762Z,54.86
2018-03-01T05:02:32.743Z,54.77
2018-03-01T05:03:32.729Z,54.86
2018-03-01T05:04:32.708Z,54.86
2018-03-01T05:05:32.687Z,54.68
2018-03-01T05:06:32.670Z,55.05
2018-03-01T05:07:32.651Z,54.96
2018-03-01T05:08:32.631Z,54.68
2018-03-01T05:09:32.628Z,54.68
2018-03-01T05:10:32.594Z,54.58
2018-03-01T05:11:32.593Z,54.49
2018-03-01T05:12:41.204Z,54.49
2018-03-01T05:14:25.958Z,54.77
2018-03-01T05:15:25.922Z,54.68
2018-03-01T05:16:25.924Z,54.49
2018-03-01T05:17:25.877Z,55.24
2018-03-01T05:18:34.511Z,54.86
2018-03-01T05:20:19.246Z,54.96
2018-03-01T05:22:40.251Z,54.96
2018-03-01T05:23:40.211Z,54.86
2018-03-01T05:24:40.251Z,54.86
2018-03-01T05:25:40.193Z,54.30
2018-03-01T05:26:40.170Z,54.77
2018-03-01T05:27:40.144Z,55.05
2018-03-01T05:28:40.124Z,54.96
2018-03-01T05:29:40.127Z,55.24
2018-03-01T05:30:40.095Z,55.05
2018-03-01T05:31:40.092Z,54.86
2018-03-01T05:32:40.095Z,54.96
2018-03-01T05:33:40.024Z,54.86
2018-03-01T05:34:40.043Z,55.15
2018-03-01T05:35:40.028Z,54.96
2018-03-01T05:36:40.061Z,55.15
2018-03-01T05:37:39.998Z,55.24
2018-03-01T05:38:39.955Z,54.86
2018-03-01T05:39:39.935Z,54.86
2018-03-01T05:40:39.971Z,55.05
2018-03-01T05:41:39.878Z,55.33
2018-03-01T05:42:39.869Z,55.05
2018-03-01T05:43:39.838Z,54.96
2018-03-01T05:44:39.818Z,55.43
2018-03-01T05:45:39.803Z,55.15
2018-03-01T05:46:39.788Z,55.24
2018-03-01T05:47:39.770Z,55.05
2018-03-01T05:48:39.742Z,55.05
2018-03-01T05:49:39.729Z,55.24
2018-03-01T05:50:39.705Z,54.96
2018-03-01T05:51:39.690Z,55.05
2018-03-01T05:52:39.669Z,55.43
2018-03-01T05:53:39.651Z,55.05
2018-03-01T05:54:39.633Z,54.96
2018-03-01T05:55:39.626Z,55.43
2018-03-01T05:56:39.601Z,55.62
2018-03-01T05:57:39.580Z,55.43
2018-03-01T05:58:39.558Z,55.62
2018-03-01T05:59:39.541Z,55.80
2018-03-01T06:00:39.525Z,55.80
2018-03-01T06:01:39.502Z,55.52
2018-03-01T06:02:39.499Z,55.71
2018-03-01T06:03:39.466Z,55.62
2018-03-01T06:04:39.446Z,55.43
2018-03-01T06:05:39.431Z,55.52
2018-03-01T06:06:39.416Z,56.09
2018-03-01T06:07:39.392Z,56.09
2018-03-01T06:08:39.388Z,56.18
2018-03-01T06:09:39.354Z,55.52
2018-03-01T06:10:39.333Z,55.62
2018-03-01T06:11:39.322Z,55.62
2018-03-01T06:12:39.304Z,55.43
2018-03-01T06:13:39.279Z,55.80
2018-03-01T06:14:39.259Z,55.71
2018-03-01T06:15:39.258Z,55.43
2018-03-01T06:16:39.222Z,55.71
2018-03-01T06:17:39.199Z,55.52
2018-03-01T06:18:39.188Z,55.62
2018-03-01T06:19:39.173Z,55.99
2018-03-01T06:20:39.151Z,55.62
2018-03-01T06:21:39.122Z,55.43
2018-03-01T06:22:39.114Z,56.18
2018-03-01T06:23:39.090Z,55.62
2018-03-01T06:24:39.076Z,55.62
2018-03-01T06:25:39.054Z,55.62
2018-03-01T06:26:39.037Z,55.99
2018-03-01T06:27:39.023Z,55.99
2018-03-01T06:28:38.995Z,56.18
2018-03-01T06:29:38.978Z,55.43
2018-03-01T06:30:39.008Z,55.52
2018-03-01T06:31:38.940Z,55.62
2018-03-01T06:32:38.922Z,55.99
2018-03-01T06:33:38.904Z,55.62
2018-03-01T06:34:38.885Z,55.71
2018-03-01T06:35:38.871Z,55.80
2018-03-01T06:36:38.845Z,55.62
2018-03-01T06:37:38.832Z,55.71
2018-03-01T06:38:38.810Z,55.62
2018-03-01T06:39:38.790Z,55.43
2018-03-01T06:40:38.772Z,55.71
2018-03-01T06:41:38.755Z,55.52
2018-03-01T06:42:38.740Z,55.62
2018-03-01T06:43:38.718Z,55.43
2018-03-01T06:44:38.700Z,55.43
2018-03-01T06:45:38.684Z,55.90
2018-03-01T06:46:38.666Z,55.71
2018-03-01T06:47:38.642Z,55.62
2018-03-01T06:48:38.625Z,55.62
2018-03-01T06:49:38.620Z,55.52
2018-03-01T06:50:38.598Z,55.62
2018-03-01T06:51:38.572Z,55.62
2018-03-01T06:52:38.553Z,55.52
2018-03-01T06:53:38.535Z,55.80
2018-03-01T06:54:38.519Z,55.62
2018-03-01T06:55:38.493Z,55.52
2018-03-01T06:56:38.482Z,55.71
2018-03-01T06:57:38.460Z,55.71
2018-03-01T06:58:38.444Z,55.71
2018-03-01T06:59:38.423Z,55.43
2018-03-01T07:00:38.420Z,55.43
2018-03-01T07:01:38.387Z,55.90
2018-03-01T07:02:38.373Z,55.62
2018-03-01T07:03:38.352Z,55.33
2018-03-01T07:04:38.328Z,55.71
2018-03-01T07:05:38.313Z,55.62
2018-03-01T07:06:38.301Z,55.90
2018-03-01T07:07:38.277Z,55.80
2018-03-01T07:08:38.270Z,55.80
2018-03-01T07:09:38.247Z,55.80
2018-03-01T07:10:38.218Z,55.62
2018-03-01T07:11:38.204Z,55.71
2018-03-01T07:12:38.181Z,55.71
2018-03-01T07:13:38.196Z,55.80
2018-03-01T07:14:38.151Z,55.43
2018-03-01T07:15:38.150Z,55.90
2018-03-01T07:16:38.139Z,55.52
2018-03-01T07:17:38.098Z,55.80
2018-03-01T07:18:38.082Z,55.52
2018-03-01T07:19:38.058Z,55.80
2018-03-01T07:20:38.071Z,55.55
2018-03-01T07:21:38.034Z,54.96
2018-03-01T07:22:38.013Z,55.24
2018-03-01T07:23:37.998Z,55.43
2018-03-01T07:24:37.974Z,55.27
2018-03-01T07:25:37.946Z,54.86
2018-03-01T07:26:37.935Z,55.27
2018-03-01T07:27:37.924Z,55.08
2018-03-01T07:28:37.893Z,54.99
2018-03-01T07:29:37.874Z,54.99
2018-03-01T07:30:37.859Z,55.08
2018-03-01T07:31:37.877Z,55.08
2018-03-01T07:32:37.822Z,54.89
2018-03-01T07:33:37.804Z,54.51
2018-03-01T07:34:37.790Z,54.42
2018-03-01T07:35:37.763Z,54.51
2018-03-01T07:36:37.758Z,54.23
2018-03-01T07:37:37.745Z,54.14
2018-03-01T07:38:37.712Z,54.33
2018-03-01T07:39:37.696Z,54.33
2018-03-01T07:40:37.672Z,54.33
2018-03-01T07:41:37.655Z,54.04
2018-03-01T07:42:37.666Z,53.95
2018-03-01T07:43:37.675Z,53.66
2018-03-01T07:44:37.601Z,53.66
2018-03-01T07:45:37.583Z,53.47
2018-03-01T07:46:37.563Z,53.85
2018-03-01T07:47:37.573Z,53.10
2018-03-01T07:48:37.532Z,53.29
2018-03-01T07:49:37.527Z,53.85
2018-03-01T07:50:37.535Z,53.57
2018-03-01T07:51:37.475Z,53.66
2018-03-01T07:52:37.463Z,53.47
2018-03-01T07:53:37.478Z,53.76
2018-03-01T07:54:37.426Z,53.85
2018-03-01T07:55:37.410Z,53.76
2018-03-01T07:56:37.415Z,53.85
2018-03-01T07:57:37.392Z,53.29
2018-03-01T07:58:37.365Z,53.19
2018-03-01T07:59:37.345Z,53.47
2018-03-01T08:00:37.320Z,53.10
2018-03-01T08:01:37.307Z,53.29
2018-03-01T08:02:37.283Z,53.76
2018-03-01T08:03:37.268Z,53.10
2018-03-01T08:04:37.248Z,52.81
2018-03-01T08:05:37.248Z,52.72
2018-03-01T08:07:58.667Z,53.19
2018-03-01T08:09:07.433Z,53.00
2018-03-01T08:11:01.236Z,52.81
2018-03-01T08:12:01.044Z,52.44
2018-03-01T08:13:45.364Z,52.44
2018-03-01T08:14:45.295Z,52.06
2018-03-01T08:15:45.262Z,51.87
2018-03-01T08:16:45.290Z,52.06
2018-03-01T08:17:45.294Z,52.06
2018-03-01T08:18:54.000Z,51.97
2018-03-01T08:20:38.803Z,52.25
2018-03-01T08:21:38.787Z,51.97
2018-03-01T08:22:38.749Z,51.97
2018-03-01T08:23:38.728Z,52.06
2018-03-01T08:24:38.727Z,51.97
2018-03-01T08:25:38.748Z,52.06
2018-03-01T08:26:38.710Z,52.06
2018-03-01T08:27:38.656Z,52.06
2018-03-01T08:28:38.653Z,52.06
2018-03-01T08:29:38.626Z,52.06
2018-03-01T08:30:38.628Z,51.78
2018-03-01T08:31:38.620Z,51.87
2018-03-01T08:32:38.574Z,51.71
2018-03-01T08:33:38.567Z,51.43
2018-03-01T08:34:38.539Z,51.33
2018-03-01T08:35:38.520Z,51.40
2018-03-01T08:36:38.534Z,51.21
2018-03-01T08:37:38.483Z,51.12
2018-03-01T08:38:38.501Z,51.31
2018-03-01T08:39:38.458Z,51.31
2018-03-01T08:40:38.438Z,51.21
2018-03-01T08:41:38.419Z,51.31
2018-03-01T08:44:08.690Z,51.50
2018-03-01T08:44:59.430Z,51.03
2018-03-01T08:45:59.406Z,51.03
2018-03-01T08:46:59.487Z,51.03
2018-03-01T08:47:59.375Z,51.21
2018-03-01T08:48:59.348Z,51.12
2018-03-01T08:49:59.327Z,50.93
2018-03-01T08:50:59.316Z,50.93
2018-03-01T08:51:59.294Z,51.03
2018-03-01T08:52:59.284Z,51.03
2018-03-01T08:53:59.265Z,50.93
2018-03-01T08:54:59.245Z,51.05
2018-03-01T08:55:59.224Z,50.76
2018-03-01T08:56:59.237Z,50.39
2018-03-01T08:57:59.198Z,50.48
2018-03-01T08:58:59.181Z,50.48
2018-03-01T09:00:07.858Z,50.58
2018-03-01T09:01:52.544Z,50.29
2018-03-01T09:02:52.517Z,50.10
2018-03-01T09:03:52.493Z,50.20
2018-03-01T09:04:52.491Z,50.29
2018-03-01T09:05:52.460Z,50.48
2018-03-01T09:06:52.581Z,50.29
2018-03-01T09:07:52.459Z,49.82
2018-03-01T09:08:52.465Z,50.58
2018-03-01T09:09:52.393Z,50.39
2018-03-01T09:10:52.398Z,50.48
2018-03-01T09:11:52.361Z,49.63
2018-03-01T09:12:52.353Z,49.54
2018-03-01T09:13:52.350Z,49.54
2018-03-01T09:14:52.315Z,49.82
2018-03-01T09:15:52.291Z,50.48
2018-03-01T09:16:52.302Z,50.10
2018-03-01T09:17:52.285Z,49.63
2018-03-01T09:18:52.253Z,49.63
2018-03-01T09:19:52.224Z,49.44
2018-03-01T09:20:52.211Z,49.26
2018-03-01T09:21:52.209Z,49.54
2018-03-01T09:22:52.188Z,49.26
2018-03-01T09:23:52.181Z,49.16
2018-03-01T09:24:52.178Z,49.07
2018-03-01T09:25:52.129Z,49.26
2018-03-01T09:26:52.110Z,49.35
2018-03-01T09:27:52.094Z,49.16
2018-03-01T09:28:52.099Z,49.16
2018-03-01T09:29:52.061Z,49.54
2018-03-01T09:30:52.057Z,49.26
2018-03-01T09:31:52.024Z,49.07
2018-03-01T09:32:52.013Z,49.07
2018-03-01T09:33:51.994Z,48.79
2018-03-01T09:34:51.977Z,48.79
2018-03-01T09:35:51.967Z,48.13
2018-03-01T09:36:51.942Z,48.41
2018-03-01T09:37:51.942Z,48.41
2018-03-01T09:38:51.916Z,48.32
2018-03-01T09:39:51.896Z,48.22
2018-03-01T09:40:51.880Z,48.22
2018-03-01T09:41:51.886Z,48.13
2018-03-01T09:42:51.850Z,47.94
2018-03-01T09:43:51.845Z,47.84
2018-03-01T09:44:51.826Z,47.58
2018-03-01T09:45:51.799Z,47.58
2018-03-01T09:46:51.798Z,47.11
2018-03-01T09:47:51.774Z,47.56
2018-03-01T09:48:51.805Z,48.03
2018-03-01T09:49:51.747Z,47.84
2018-03-01T09:50:51.719Z,47.67
2018-03-01T09:51:51.712Z,47.96
2018-03-01T09:52:51.689Z,47.56
2018-03-01T09:53:51.673Z,47.67
2018-03-01T09:54:51.659Z,47.39
2018-03-01T10:25:24.810Z,46.55
2018-03-01T10:26:37.519Z,46.55
2018-03-01T10:27:13.700Z,46.83
2018-03-01T10:28:13.659Z,46.64
2018-03-01T10:29:13.684Z,46.55
2018-03-01T10:30:13.623Z,46.26
2018-03-01T10:31:13.646Z,46.17
2018-03-01T10:32:13.595Z,45.98
2018-03-01T10:33:13.612Z,46.07
2018-03-01T10:34:13.619Z,45.79
2018-03-01T10:35:13.566Z,45.41
2018-03-01T10:36:13.536Z,45.69
2018-03-01T10:37:13.533Z,45.79
2018-03-01T10:38:13.576Z,45.60
2018-03-01T10:39:22.360Z,45.60
2018-03-01T10:41:07.008Z,45.69
2018-03-01T10:42:06.889Z,45.79
2018-03-01T10:43:06.904Z,45.79
2018-03-01T10:44:06.902Z,45.50
2018-03-01T10:45:07.071Z,45.69
2018-03-01T10:46:06.920Z,45.50
2018-03-01T10:47:06.811Z,45.13
2018-03-01T10:48:06.770Z,45.32
2018-03-01T10:49:06.774Z,45.60
2018-03-01T10:50:06.762Z,45.60
2018-03-01T10:51:06.783Z,45.60
2018-03-01T10:52:06.746Z,45.69
2018-03-01T10:53:06.687Z,45.41
2018-03-01T10:54:06.786Z,45.50
2018-03-01T10:55:06.671Z,45.41
2018-03-01T10:56:06.641Z,45.50
2018-03-01T10:57:06.681Z,45.22
2018-03-01T10:58:06.636Z,45.03
2018-03-01T10:59:06.802Z,44.84
2018-03-01T11:00:06.637Z,44.94
2018-03-01T11:01:06.567Z,45.22
2018-03-01T11:02:06.581Z,45.13
2018-03-01T11:03:06.532Z,45.13
2018-03-01T11:04:06.523Z,44.75
2018-03-01T11:05:06.536Z,45.13
2018-03-01T11:06:06.557Z,44.75
2018-03-01T11:07:06.503Z,45.32
2018-03-01T11:08:06.456Z,44.84
2018-03-01T11:09:06.463Z,44.65
2018-03-01T11:10:06.472Z,44.46
2018-03-01T11:11:06.416Z,44.65
2018-03-01T11:12:06.394Z,44.46
2018-03-01T11:14:27.436Z,44.56
2018-03-01T11:15:27.537Z,44.27
2018-03-01T11:16:27.381Z,44.37
2018-03-01T11:17:27.651Z,44.27
2018-03-01T11:18:27.329Z,44.37
2018-03-01T11:19:27.338Z,43.99
2018-03-01T11:20:27.328Z,44.09
2018-03-01T11:21:27.285Z,44.21
2018-03-01T11:22:27.271Z,44.30
2018-03-01T11:23:27.252Z,44.09
2018-03-01T11:24:27.242Z,44.02
2018-03-01T11:25:27.245Z,43.73
2018-03-01T11:26:27.210Z,43.45
2018-03-01T11:27:27.191Z,43.35
2018-03-01T11:28:27.180Z,43.64
2018-03-01T11:29:27.188Z,43.54
2018-03-01T11:30:27.151Z,43.07
2018-03-01T11:31:27.148Z,42.88
2018-03-01T11:32:27.127Z,42.97
2018-03-01T11:33:27.114Z,42.97
2018-03-01T11:34:27.096Z,42.69
2018-03-01T11:35:27.092Z,42.50
2018-03-01T11:36:27.071Z,42.32
2018-03-01T11:37:27.044Z,42.41
2018-03-01T11:38:27.031Z,42.22
2018-03-01T11:39:27.020Z,42.22
2018-03-01T11:40:27.002Z,42.22
2018-03-01T11:41:26.997Z,42.41
2018-03-01T11:42:26.994Z,42.79
2018-03-01T11:43:26.966Z,42.97
2018-03-01T11:44:26.970Z,42.41
2018-03-01T11:45:26.941Z,42.50
2018-03-01T11:46:26.915Z,42.50
2018-03-01T11:47:26.910Z,42.69
2018-03-01T11:48:26.889Z,42.50
2018-03-01T11:49:26.870Z,42.32
2018-03-01T11:50:26.860Z,42.32
2018-03-01T11:51:26.866Z,42.32
2018-03-01T11:52:26.828Z,42.50
2018-03-01T11:53:26.820Z,42.32
2018-03-01T11:54:26.795Z,42.22
2018-03-01T11:55:26.783Z,42.32
2018-03-01T11:56:26.770Z,42.69
2018-03-01T11:57:26.749Z,42.50
2018-03-01T11:58:26.738Z,42.41
2018-03-01T11:59:26.721Z,42.22
2018-03-01T12:00:26.706Z,42.22
2018-03-01T12:01:26.693Z,42.41
2018-03-01T12:02:26.683Z,42.32
2018-03-01T12:03:26.667Z,42.22
2018-03-01T12:04:26.673Z,42.22
2018-03-01T12:05:26.641Z,41.94
2018-03-01T12:06:26.617Z,41.66
2018-03-01T12:07:26.599Z,41.85
2018-03-01T12:08:26.627Z,42.03
2018-03-01T12:09:26.583Z,42.13
2018-03-01T12:10:26.560Z,42.32
2018-03-01T12:11:26.580Z,42.22
2018-03-01T12:12:26.544Z,42.22
2018-03-01T12:13:26.525Z,42.52
2018-03-01T12:14:26.518Z,41.75
2018-03-01T12:15:26.484Z,41.75
2018-03-01T12:16:26.481Z,41.86
2018-03-01T12:17:26.510Z,41.56
2018-03-01T12:18:26.442Z,41.56
2018-03-01T12:19:26.439Z,41.56
2018-03-01T12:20:26.414Z,41.77
2018-03-01T12:21:26.425Z,41.02
2018-03-01T12:22:26.382Z,41.20
2018-03-01T12:23:26.382Z,41.20
2018-03-01T12:24:26.356Z,40.83
2018-03-01T12:25:26.348Z,40.73
2018-03-01T12:26:36.014Z,40.83
2018-03-01T12:28:19.798Z,40.92
2018-03-01T12:29:19.708Z,41.20
2018-03-01T12:30:19.694Z,40.90
2018-03-01T12:31:19.701Z,41.09
2018-03-01T12:32:19.730Z,41.11
2018-03-01T12:33:19.710Z,40.73
2018-03-01T12:34:19.660Z,40.64
2018-03-01T12:35:19.617Z,40.26
2018-03-01T12:36:19.608Z,40.64
2018-03-01T12:37:19.578Z,40.26
2018-03-01T12:38:19.608Z,40.16
2018-03-01T12:39:19.569Z,40.26
2018-03-01T12:40:19.534Z,40.26
2018-03-01T12:41:19.525Z,40.16
2018-03-01T12:42:19.505Z,39.69
2018-03-01T12:43:19.499Z,39.78
2018-03-01T12:44:19.541Z,39.78
2018-03-01T12:45:19.465Z,39.97
2018-03-01T12:46:19.452Z,39.88
2018-03-01T12:47:19.463Z,39.97
2018-03-01T12:48:19.428Z,39.78
2018-03-01T12:49:19.420Z,40.07
2018-03-01T12:50:19.397Z,40.26
2018-03-01T12:51:19.419Z,40.26
2018-03-01T12:52:19.369Z,39.88
2018-03-01T12:53:19.361Z,40.26
2018-03-01T12:54:19.371Z,40.07
2018-03-01T12:55:19.327Z,40.07
2018-03-01T12:56:19.343Z,40.26
2018-03-01T12:57:19.293Z,40.26
2018-03-01T12:58:19.290Z,40.35
2018-03-01T12:59:19.272Z,39.88
2018-03-01T13:00:19.258Z,39.88
2018-03-01T13:01:19.241Z,39.88
2018-03-01T13:02:19.264Z,40.26
2018-03-01T13:03:19.237Z,40.35
2018-03-01T13:04:19.222Z,40.26
2018-03-01T13:05:19.184Z,40.35
2018-03-01T13:06:19.173Z,40.16
2018-03-01T13:07:19.163Z,39.90
2018-03-01T13:08:19.164Z,39.88
2018-03-01T13:09:19.154Z,39.81
2018-03-01T13:10:19.169Z,39.43
2018-03-01T13:11:19.106Z,39.22
2018-03-01T13:12:19.088Z,40.09
2018-03-01T13:13:19.076Z,39.33
2018-03-01T13:14:19.067Z,39.24
2018-03-01T13:15:19.066Z,38.57
2018-03-01T13:16:19.036Z,38.95
2018-03-01T13:17:19.022Z,38.95
2018-03-01T13:18:19.014Z,39.31
2018-03-01T13:19:18.995Z,39.33
2018-03-01T13:20:18.989Z,39.24
2018-03-01T13:21:18.965Z,38.95
2018-03-01T13:22:18.957Z,39.05
2018-03-01T13:23:18.945Z,38.57
2018-03-01T13:24:18.925Z,38.67
2018-03-01T13:25:18.914Z,38.86
2018-03-01T13:26:18.898Z,38.39
2018-03-01T13:27:18.885Z,38.48
2018-03-01T13:28:18.884Z,38.39
2018-03-01T13:29:18.873Z,38.76
2018-03-01T13:30:18.843Z,38.57
2018-03-01T13:31:18.900Z,38.67
2018-03-01T13:32:18.820Z,38.57
2018-03-01T13:33:18.821Z,38.48
2018-03-01T13:34:18.793Z,38.76
2018-03-01T13:35:18.806Z,38.39
2018-03-01T13:36:18.765Z,38.48
2018-03-01T13:37:18.757Z,38.48
2018-03-01T13:38:18.745Z,38.39
2018-03-01T13:39:18.728Z,38.39
2018-03-01T13:40:27.407Z,38.39
2018-03-01T13:42:12.135Z,37.82
2018-03-01T13:43:20.775Z,37.93
2018-03-01T13:45:05.595Z,37.82
2018-03-01T13:46:05.456Z,37.73
2018-03-01T13:47:05.432Z,37.82
2018-03-01T13:48:05.415Z,37.92
2018-03-01T13:49:05.386Z,37.73
2018-03-01T13:50:05.365Z,38.20
2018-03-01T13:51:05.367Z,37.82
2018-03-01T13:52:05.340Z,37.82
2018-03-01T13:53:05.444Z,37.82
2018-03-01T13:54:05.336Z,38.10
2018-03-01T13:55:05.297Z,38.01
2018-03-01T13:56:05.305Z,38.29
2018-03-01T13:57:05.270Z,37.82